To NAV CANADA Home Page Login to a new session Search on AWWS site Disclaimer Vers la page française équivalente Tips FAQ What's new on the site To the Forecasts and Observations / NOTAM section To "File a Flight Plan" website Publications and other links Update of the User's profile FIC Telephone Numbers My Weather Data Folder Route Weather Data Regional Weather Data Local Weather Data To the Forecasts and Observations / NOTAM section
Request Generated 03/19/2019 at 23:04:23 UTC . Weather information available at that time is displayed.

METAR/TAF

FORT SEVERN/ON    (show WxCam)

METAR CYER 192300Z AUTO 05005KT 9SM -RA OVC050 01/M01 A2973 RMK SLP069=
SPECI CYER 192254Z AUTO 06004KT 9SM -RA OVC050 01/M01 A2972 RMK SLP068=
SPECI CYER 192251Z AUTO 08003KT 9SM OVC048 01/M01 A2972 RMK SLP067=
SPECI CYER 192238Z AUTO 29003KT 230V330 9SM -RA BKN046 OVC050 03/00 A2972 RMK SLP066=
SPECI CYER 192236Z AUTO VRB02KT 9SM OVC046 03/M00 A2972 RMK SLP066=
METAR CYER 192200Z AUTO 30003KT 9SM -RA FEW028 SCT037 OVC048 03/M00 A2971 RMK SLP064=
SPECI CYER 192158Z AUTO 29003KT 9SM -RA FEW028 OVC048 03/M00 A2971 RMK SLP063=
METAR CYER 192100Z AUTO 26005KT 9SM OVC033 04/M00 A2970 RMK SLP060=

*** REMARK        : Forecast period has ended; this was the last TAF issued
*** REMARQUE : La période de prévision est échue; ceci était le dernier TAF qui a été émis
TAF CYER 191438Z 1915/1919 23008KT P6SM BKN040 TEMPO 1915/1919 5SM
-SHSN BKN020
RMK FCST BASED ON AUTO OBS. NXT FCST WILL BE ISSUED AT 200845Z=
Your time UTC time
Weather data provided by Environment Canada and NAV CANADA